sensor_id;sensor_type;location;lat;lon;timestamp;pressure;altitude;pressure_sealevel;temperature;humidity
42945;BME280;28584;42.636;23.294;2022-08-19T00:00:24;164131.13;;;20.89;99.39
42945;BME280;28584;42.636;23.294;2022-08-19T00:02:51;164086.72;;;20.72;100.00
42945;BME280;28584;42.636;23.294;2022-08-19T00:05:18;164074.59;;;20.68;99.32
42945;BME280;28584;42.636;23.294;2022-08-19T00:07:44;164049.06;;;20.58;96.11
42945;BME280;28584;42.636;23.294;2022-08-19T00:10:12;164145.97;;;20.94;89.20
42945;BME280;28584;42.636;23.294;2022-08-19T00:12:38;164229.44;;;21.25;84.78
42945;BME280;28584;42.636;23.294;2022-08-19T00:15:06;164249.66;;;21.33;84.34
42945;BME280;28584;42.636;23.294;2022-08-19T00:17:32;164228.13;;;21.25;85.08
42945;BME280;28584;42.636;23.294;2022-08-19T00:19:57;164207.91;;;21.17;85.89
42945;BME280;28584;42.636;23.294;2022-08-19T00:22:23;164256.38;;;21.35;83.17
42945;BME280;28584;42.636;23.294;2022-08-19T00:24:49;164283.31;;;21.45;79.93
42945;BME280;28584;42.636;23.294;2022-08-19T00:27:14;164283.31;;;21.45;80.09
42945;BME280;28584;42.636;23.294;2022-08-19T00:29:40;164264.47;;;21.38;80.66
42945;BME280;28584;42.636;23.294;2022-08-19T00:32:05;164286.00;;;21.46;79.90
42945;BME280;28584;42.636;23.294;2022-08-19T00:34:31;164272.53;;;21.41;82.42
42945;BME280;28584;42.636;23.294;2022-08-19T00:36:57;164253.69;;;21.34;82.36
42945;BME280;28584;42.636;23.294;2022-08-19T00:39:23;164224.09;;;21.23;83.94
42945;BME280;28584;42.636;23.294;2022-08-19T00:41:50;164218.69;;;21.21;85.64
42945;BME280;28584;42.636;23.294;2022-08-19T00:44:27;164211.97;;;21.19;84.89
42945;BME280;28584;42.636;23.294;2022-08-19T00:46:55;164201.19;;;21.15;87.13
42945;BME280;28584;42.636;23.294;2022-08-19T00:49:47;164218.69;;;21.21;83.78
42945;BME280;28584;42.636;23.294;2022-08-19T00:52:32;164290.03;;;21.48;78.41
42945;BME280;28584;42.636;23.294;2022-08-19T00:55:00;164294.06;;;21.49;79.49
42945;BME280;28584;42.636;23.294;2022-08-19T00:57:33;164260.41;;;21.37;79.94
42945;BME280;28584;42.636;23.294;2022-08-19T01:00:01;164228.13;;;21.25;83.25
42945;BME280;28584;42.636;23.294;2022-08-19T01:02:28;164195.78;;;21.13;85.22
42945;BME280;28584;42.636;23.294;2022-08-19T01:04:54;164164.81;;;21.01;86.58
42945;BME280;28584;42.636;23.294;2022-08-19T01:07:19;164137.84;;;20.91;89.57
42945;BME280;28584;42.636;23.294;2022-08-19T01:09:45;164120.38;;;20.85;88.62
42945;BME280;28584;42.636;23.294;2022-08-19T01:12:11;164100.16;;;20.77;90.23
42945;BME280;28584;42.636;23.294;2022-08-19T01:14:38;164075.97;;;20.68;92.90
42945;BME280;28584;42.636;23.294;2022-08-19T01:17:05;164057.13;;;20.61;94.76
42945;BME280;28584;42.636;23.294;2022-08-19T01:19:35;164057.13;;;20.61;92.49
42945;BME280;28584;42.636;23.294;2022-08-19T01:22:09;164040.97;;;20.55;92.63
42945;BME280;28584;42.636;23.294;2022-08-19T01:24:37;164015.41;;;20.46;91.98
42945;BME280;28584;42.636;23.294;2022-08-19T01:27:06;164003.28;;;20.41;94.61
42945;BME280;28584;42.636;23.294;2022-08-19T01:29:32;163992.53;;;20.37;94.39
42945;BME280;28584;42.636;23.294;2022-08-19T01:31:58;163985.81;;;20.35;95.57
42945;BME280;28584;42.636;23.294;2022-08-19T01:34:25;163970.97;;;20.29;95.99
42945;BME280;28584;42.636;23.294;2022-08-19T01:36:50;163962.94;;;20.26;96.12
42945;BME280;28584;42.636;23.294;2022-08-19T01:39:21;163964.25;;;20.27;98.12
42945;BME280;28584;42.636;23.294;2022-08-19T01:41:47;163954.88;;;20.23;97.47
42945;BME280;28584;42.636;23.294;2022-08-19T01:44:13;163938.72;;;20.17;99.33
42945;BME280;28584;42.636;23.294;2022-08-19T01:46:39;163957.56;;;20.24;100.00
42945;BME280;28584;42.636;23.294;2022-08-19T01:49:05;163944.13;;;20.19;100.00
42945;BME280;28584;42.636;23.294;2022-08-19T01:51:31;163905.03;;;20.05;100.00
42945;BME280;28584;42.636;23.294;2022-08-19T01:53:57;163870.06;;;19.92;100.00
42945;BME280;28584;42.636;23.294;2022-08-19T01:56:23;163821.63;;;19.74;100.00
42945;BME280;28584;42.636;23.294;2022-08-19T01:58:59;163793.38;;;19.63;100.00
42945;BME280;28584;42.636;23.294;2022-08-19T02:01:26;163814.94;;;19.71;100.00
42945;BME280;28584;42.636;23.294;2022-08-19T02:03:51;163833.75;;;19.78;100.00
42945;BME280;28584;42.636;23.294;2022-08-19T02:06:19;163896.97;;;20.02;100.00
42945;BME280;28584;42.636;23.294;2022-08-19T02:08:44;163934.69;;;20.16;97.83
42945;BME280;28584;42.636;23.294;2022-08-19T02:11:24;163995.22;;;20.38;93.06
42945;BME280;28584;42.636;23.294;2022-08-19T02:13:52;163981.78;;;20.33;93.61
42945;BME280;28584;42.636;23.294;2022-08-19T02:16:18;163984.47;;;20.34;97.26
42945;BME280;28584;42.636;23.294;2022-08-19T02:18:46;163989.88;;;20.36;97.98
42945;BME280;28584;42.636;23.294;2022-08-19T02:21:14;163993.84;;;20.38;97.72
42945;BME280;28584;42.636;23.294;2022-08-19T02:23:41;163952.13;;;20.22;100.00
42945;BME280;28584;42.636;23.294;2022-08-19T02:26:07;163902.38;;;20.04;100.00
42945;BME280;28584;42.636;23.294;2022-08-19T02:28:32;163937.34;;;20.17;98.54
42945;BME280;28584;42.636;23.294;2022-08-19T02:30:59;163992.53;;;20.37;91.56
42945;BME280;28584;42.636;23.294;2022-08-19T02:33:26;164094.81;;;20.75;83.11
42945;BME280;28584;42.636;23.294;2022-08-19T02:35:51;164218.69;;;21.21;80.95
42945;BME280;28584;42.636;23.294;2022-08-19T02:38:17;164155.44;;;20.98;83.89
42945;BME280;28584;42.636;23.294;2022-08-19T02:40:55;164105.56;;;20.79;87.63
42945;BME280;28584;42.636;23.294;2022-08-19T02:43:22;164054.41;;;20.60;91.54
42945;BME280;28584;42.636;23.294;2022-08-19T02:45:49;164016.72;;;20.46;95.14
42945;BME280;28584;42.636;23.294;2022-08-19T02:48:16;163944.13;;;20.19;100.00
42945;BME280;28584;42.636;23.294;2022-08-19T02:50:42;163937.34;;;20.17;100.00
42945;BME280;28584;42.636;23.294;2022-08-19T02:53:08;163879.50;;;19.95;100.00
42945;BME280;28584;42.636;23.294;2022-08-19T02:55:34;163870.06;;;19.92;100.00
42945;BME280;28584;42.636;23.294;2022-08-19T02:58:00;163860.66;;;19.88;100.00
42945;BME280;28584;42.636;23.294;2022-08-19T03:00:26;163837.81;;;19.80;100.00
42945;BME280;28584;42.636;23.294;2022-08-19T03:02:52;163739.63;;;19.43;100.00
42945;BME280;28584;42.636;23.294;2022-08-19T03:05:17;163688.47;;;19.24;100.00
42945;BME280;28584;42.636;23.294;2022-08-19T03:07:43;163693.91;;;19.26;100.00
42945;BME280;28584;42.636;23.294;2022-08-19T03:10:09;163642.75;;;19.07;100.00
42945;BME280;28584;42.636;23.294;2022-08-19T03:12:36;163610.50;;;18.95;100.00
42945;BME280;28584;42.636;23.294;2022-08-19T03:15:04;163525.81;;;18.63;100.00
42945;BME280;28584;42.636;23.294;2022-08-19T03:17:30;163515.06;;;18.59;100.00
42945;BME280;28584;42.636;23.294;2022-08-19T03:19:55;163494.91;;;18.52;100.00
42945;BME280;28584;42.636;23.294;2022-08-19T03:22:21;163469.38;;;18.42;100.00
42945;BME280;28584;42.636;23.294;2022-08-19T03:24:46;163462.66;;;18.40;100.00
42945;BME280;28584;42.636;23.294;2022-08-19T03:27:12;163462.66;;;18.40;100.00
42945;BME280;28584;42.636;23.294;2022-08-19T03:29:39;163449.16;;;18.35;100.00
42945;BME280;28584;42.636;23.294;2022-08-19T03:32:05;163468.03;;;18.42;100.00
42945;BME280;28584;42.636;23.294;2022-08-19T03:34:33;163488.19;;;18.49;100.00
42945;BME280;28584;42.636;23.294;2022-08-19T03:37:03;163528.50;;;18.64;100.00
42945;BME280;28584;42.636;23.294;2022-08-19T03:39:29;163513.72;;;18.59;100.00
42945;BME280;28584;42.636;23.294;2022-08-19T03:41:55;163504.34;;;18.55;100.00
42945;BME280;28584;42.636;23.294;2022-08-19T03:44:26;163521.78;;;18.62;100.00
42945;BME280;28584;42.636;23.294;2022-08-19T03:46:54;163564.81;;;18.78;100.00
42945;BME280;28584;42.636;23.294;2022-08-19T03:49:21;163621.25;;;18.99;100.00
42945;BME280;28584;42.636;23.294;2022-08-19T03:51:48;163654.84;;;19.12;100.00
42945;BME280;28584;42.636;23.294;2022-08-19T03:54:18;163679.06;;;19.21;100.00
42945;BME280;28584;42.636;23.294;2022-08-19T03:56:45;163696.59;;;19.27;100.00
42945;BME280;28584;42.636;23.294;2022-08-19T03:59:16;163712.72;;;19.33;100.00
42945;BME280;28584;42.636;23.294;2022-08-19T04:01:42;163761.13;;;19.51;100.00
42945;BME280;28584;42.636;23.294;2022-08-19T04:04:08;163793.38;;;19.63;100.00
42945;BME280;28584;42.636;23.294;2022-08-19T04:06:35;163810.88;;;19.70;100.00
42945;BME280;28584;42.636;23.294;2022-08-19T04:09:03;163875.47;;;19.94;100.00
42945;BME280;28584;42.636;23.294;2022-08-19T04:11:34;163907.72;;;20.06;100.00
42945;BME280;28584;42.636;23.294;2022-08-19T04:14:00;163957.56;;;20.24;100.00
42945;BME280;28584;42.636;23.294;2022-08-19T04:16:27;164015.41;;;20.46;100.00
42945;BME280;28584;42.636;23.294;2022-08-19T04:18:54;164082.69;;;20.71;100.00
42945;BME280;28584;42.636;23.294;2022-08-19T04:21:22;164154.06;;;20.97;100.00
42945;BME280;28584;42.636;23.294;2022-08-19T04:23:48;164240.22;;;21.29;100.00
42945;BME280;28584;42.636;23.294;2022-08-19T04:26:14;164307.56;;;21.54;100.00
42945;BME280;28584;42.636;23.294;2022-08-19T04:28:41;164366.84;;;21.77;100.00
42945;BME280;28584;42.636;23.294;2022-08-19T04:31:16;164477.31;;;22.18;100.00
42945;BME280;28584;42.636;23.294;2022-08-19T04:33:42;164552.75;;;22.46;96.22
42945;BME280;28584;42.636;23.294;2022-08-19T04:36:07;164633.66;;;22.76;94.91
42945;BME280;28584;42.636;23.294;2022-08-19T04:38:35;164719.91;;;23.08;94.50
42945;BME280;28584;42.636;23.294;2022-08-19T04:41:02;164798.13;;;23.37;90.92
42945;BME280;28584;42.636;23.294;2022-08-19T04:43:46;164876.34;;;23.66;83.01
42945;BME280;28584;42.636;23.294;2022-08-19T04:46:15;164957.28;;;23.96;74.74
42945;BME280;28584;42.636;23.294;2022-08-19T04:48:42;165022.03;;;24.20;70.50
42945;BME280;28584;42.636;23.294;2022-08-19T04:51:10;165086.78;;;24.44;70.46
42945;BME280;28584;42.636;23.294;2022-08-19T04:53:39;165015.28;;;24.18;75.05
42945;BME280;28584;42.636;23.294;2022-08-19T04:56:11;164924.88;;;23.84;74.99
42945;BME280;28584;42.636;23.294;2022-08-19T04:58:39;164808.91;;;23.41;79.11
42945;BME280;28584;42.636;23.294;2022-08-19T05:01:06;164920.84;;;23.82;76.15
42945;BME280;28584;42.636;23.294;2022-08-19T05:03:32;165080.03;;;24.42;68.31
42945;BME280;28584;42.636;23.294;2022-08-19T05:06:06;165111.06;;;24.53;65.75
42945;BME280;28584;42.636;23.294;2022-08-19T05:08:34;165275.72;;;25.14;63.32
42945;BME280;28584;42.636;23.294;2022-08-19T05:11:06;165355.41;;;25.44;58.67
42945;BME280;28584;42.636;23.294;2022-08-19T05:13:32;165398.63;;;25.60;58.55
42945;BME280;28584;42.636;23.294;2022-08-19T05:15:58;165472.91;;;25.87;56.88
42945;BME280;28584;42.636;23.294;2022-08-19T05:18:24;165599.88;;;26.34;55.15
42945;BME280;28584;42.636;23.294;2022-08-19T05:21:14;165651.22;;;26.53;54.07
42945;BME280;28584;42.636;23.294;2022-08-19T05:23:58;165782.31;;;27.02;53.78
42945;BME280;28584;42.636;23.294;2022-08-19T05:26:25;165902.59;;;27.47;54.16
42945;BME280;28584;42.636;23.294;2022-08-19T05:28:52;166001.31;;;27.83;52.42
42945;BME280;28584;42.636;23.294;2022-08-19T05:31:17;166029.75;;;27.94;52.09
42945;BME280;28584;42.636;23.294;2022-08-19T05:33:43;166108.16;;;28.23;51.09
42945;BME280;28584;42.636;23.294;2022-08-19T05:36:09;166112.19;;;28.24;50.62
42945;BME280;28584;42.636;23.294;2022-08-19T05:38:34;165810.69;;;27.13;52.08
42945;BME280;28584;42.636;23.294;2022-08-19T05:41:06;165729.63;;;26.83;54.79
42945;BME280;28584;42.636;23.294;2022-08-19T05:43:31;165843.16;;;27.25;54.04
42945;BME280;28584;42.636;23.294;2022-08-19T05:45:57;165929.66;;;27.57;52.55
42945;BME280;28584;42.636;23.294;2022-08-19T05:48:23;165944.50;;;27.62;53.35
42945;BME280;28584;42.636;23.294;2022-08-19T05:50:48;166140.63;;;28.35;51.56
42945;BME280;28584;42.636;23.294;2022-08-19T05:53:16;166274.59;;;28.84;50.09
42945;BME280;28584;42.636;23.294;2022-08-19T05:55:42;166446.47;;;29.48;49.75
42945;BME280;28584;42.636;23.294;2022-08-19T05:58:07;166548.00;;;29.86;47.94
42945;BME280;28584;42.636;23.294;2022-08-19T06:00:34;166399.06;;;29.31;48.94
42945;BME280;28584;42.636;23.294;2022-08-19T06:03:00;166546.63;;;29.85;47.99
42945;BME280;28584;42.636;23.294;2022-08-19T06:05:29;166623.78;;;30.14;47.53
42945;BME280;28584;42.636;23.294;2022-08-19T06:07:54;166573.69;;;29.95;47.58
42945;BME280;28584;42.636;23.294;2022-08-19T06:10:20;166676.63;;;30.33;46.35
42945;BME280;28584;42.636;23.294;2022-08-19T06:12:47;166711.84;;;30.46;46.23
42945;BME280;28584;42.636;23.294;2022-08-19T06:15:14;166822.94;;;30.87;45.41
42945;BME280;28584;42.636;23.294;2022-08-19T06:17:39;166873.03;;;31.06;45.29
42945;BME280;28584;42.636;23.294;2022-08-19T06:20:09;166742.97;;;30.58;45.98
42945;BME280;28584;42.636;23.294;2022-08-19T06:22:48;166742.97;;;30.58;45.29
42945;BME280;28584;42.636;23.294;2022-08-19T06:25:17;166668.50;;;30.30;45.98
42945;BME280;28584;42.636;23.294;2022-08-19T06:27:43;166772.75;;;30.69;45.19
42945;BME280;28584;42.636;23.294;2022-08-19T06:30:09;166843.22;;;30.95;44.94
42945;BME280;28584;42.636;23.294;2022-08-19T06:32:37;166840.50;;;30.94;44.41
42945;BME280;28584;42.636;23.294;2022-08-19T06:35:03;166931.31;;;31.27;43.79
42945;BME280;28584;42.636;23.294;2022-08-19T06:37:29;167001.75;;;31.54;43.57
42945;BME280;28584;42.636;23.294;2022-08-19T06:39:55;167077.69;;;31.82;43.71
42945;BME280;28584;42.636;23.294;2022-08-19T06:42:20;167051.91;;;31.72;42.62
42945;BME280;28584;42.636;23.294;2022-08-19T06:44:47;167038.31;;;31.67;42.09
42945;BME280;28584;42.636;23.294;2022-08-19T06:47:18;167042.38;;;31.69;42.44
42945;BME280;28584;42.636;23.294;2022-08-19T06:49:44;167066.81;;;31.78;41.75
42945;BME280;28584;42.636;23.294;2022-08-19T06:52:10;166292.16;;;28.91;46.19
42945;BME280;28584;42.636;23.294;2022-08-19T06:54:40;166459.97;;;29.53;46.42
42945;BME280;28584;42.636;23.294;2022-08-19T06:57:06;166625.16;;;30.14;45.92
42945;BME280;28584;42.636;23.294;2022-08-19T06:59:34;166917.72;;;31.22;42.67
42945;BME280;28584;42.636;23.294;2022-08-19T07:02:03;167110.19;;;31.94;41.68
42945;BME280;28584;42.636;23.294;2022-08-19T07:04:31;167068.13;;;31.78;41.58
42945;BME280;28584;42.636;23.294;2022-08-19T07:07:06;167267.44;;;32.52;40.36
42945;BME280;28584;42.636;23.294;2022-08-19T07:09:33;167333.88;;;32.76;39.57
42945;BME280;28584;42.636;23.294;2022-08-19T07:11:58;167373.22;;;32.91;39.66
42945;BME280;28584;42.636;23.294;2022-08-19T07:14:26;167386.81;;;32.96;39.71
42945;BME280;28584;42.636;23.294;2022-08-19T07:16:53;167217.28;;;32.33;40.21
42945;BME280;28584;42.636;23.294;2022-08-19T07:19:20;167275.59;;;32.55;40.26
42945;BME280;28584;42.636;23.294;2022-08-19T07:21:48;167041.06;;;31.68;42.03
42945;BME280;28584;42.636;23.294;2022-08-19T07:24:16;166955.69;;;31.37;42.11
42945;BME280;28584;42.636;23.294;2022-08-19T07:26:43;166752.44;;;30.61;43.35
42945;BME280;28584;42.636;23.294;2022-08-19T07:29:10;166878.44;;;31.08;42.45
42945;BME280;28584;42.636;23.294;2022-08-19T07:31:36;166660.38;;;30.27;44.57
42945;BME280;28584;42.636;23.294;2022-08-19T07:34:04;166836.44;;;30.92;42.96
42945;BME280;28584;42.636;23.294;2022-08-19T07:36:36;166649.53;;;30.23;44.34
42945;BME280;28584;42.636;23.294;2022-08-19T07:39:11;166698.28;;;30.41;45.08
42945;BME280;28584;42.636;23.294;2022-08-19T07:41:37;166786.34;;;30.74;43.52
42945;BME280;28584;42.636;23.294;2022-08-19T07:44:04;167213.22;;;32.32;41.45
42945;BME280;28584;42.636;23.294;2022-08-19T07:46:31;167457.28;;;33.22;38.96
42945;BME280;28584;42.636;23.294;2022-08-19T07:48:57;167704.28;;;34.13;38.32
42945;BME280;28584;42.636;23.294;2022-08-19T07:51:23;167757.19;;;34.33;38.20
42945;BME280;28584;42.636;23.294;2022-08-19T07:53:48;167769.44;;;34.37;37.18
42945;BME280;28584;42.636;23.294;2022-08-19T07:56:18;167910.63;;;34.89;36.12
42945;BME280;28584;42.636;23.294;2022-08-19T07:58:46;168085.78;;;35.54;35.03
42945;BME280;28584;42.636;23.294;2022-08-19T08:01:16;168074.91;;;35.50;34.96
42945;BME280;28584;42.636;23.294;2022-08-19T08:03:42;168176.78;;;35.87;34.15
42945;BME280;28584;42.636;23.294;2022-08-19T08:06:26;168190.34;;;35.92;34.37
42945;BME280;28584;42.636;23.294;2022-08-19T08:09:11;168203.94;;;35.97;33.89
42945;BME280;28584;42.636;23.294;2022-08-19T08:11:53;168136.00;;;35.72;34.51
42945;BME280;28584;42.636;23.294;2022-08-19T08:14:35;167891.56;;;34.82;34.09
42945;BME280;28584;42.636;23.294;2022-08-19T08:17:02;168081.69;;;35.52;34.34
42945;BME280;28584;42.636;23.294;2022-08-19T08:19:28;167104.78;;;31.92;38.12
42945;BME280;28584;42.636;23.294;2022-08-19T08:21:57;167210.47;;;32.31;38.35
42945;BME280;28584;42.636;23.294;2022-08-19T08:24:25;167251.16;;;32.46;38.64
42945;BME280;28584;42.636;23.294;2022-08-19T08:26:51;167370.53;;;32.90;36.67
42945;BME280;28584;42.636;23.294;2022-08-19T08:29:16;167220.03;;;32.34;38.64
42945;BME280;28584;42.636;23.294;2022-08-19T08:31:43;167069.50;;;31.79;37.91
42945;BME280;28584;42.636;23.294;2022-08-19T08:34:10;167454.59;;;33.21;37.27
42945;BME280;28584;42.636;23.294;2022-08-19T08:36:42;167534.66;;;33.50;36.25
42945;BME280;28584;42.636;23.294;2022-08-19T08:39:08;167788.44;;;34.44;34.71
42945;BME280;28584;42.636;23.294;2022-08-19T08:41:43;167191.50;;;32.24;35.39
42945;BME280;28584;42.636;23.294;2022-08-19T08:44:29;167479.03;;;33.30;35.21
42945;BME280;28584;42.636;23.294;2022-08-19T08:47:00;167796.59;;;34.47;33.41
42945;BME280;28584;42.636;23.294;2022-08-19T08:49:33;168079.00;;;35.51;31.53
42945;BME280;28584;42.636;23.294;2022-08-19T08:52:09;167958.09;;;35.07;30.95
42945;BME280;28584;42.636;23.294;2022-08-19T08:54:42;168307.22;;;36.36;29.81
42945;BME280;28584;42.636;23.294;2022-08-19T08:58:09;168292.28;;;36.30;29.29
42945;BME280;28584;42.636;23.294;2022-08-19T09:00:10;168038.22;;;35.36;30.66
42945;BME280;28584;42.636;23.294;2022-08-19T09:02:38;168111.56;;;35.63;30.75
42945;BME280;28584;42.636;23.294;2022-08-19T09:05:03;168239.25;;;36.11;29.88
42945;BME280;28584;42.636;23.294;2022-08-19T09:10:30;168357.47;;;36.54;28.94
42945;BME280;28584;42.636;23.294;2022-08-19T09:13:17;167793.84;;;34.46;30.52
42945;BME280;28584;42.636;23.294;2022-08-19T09:15:45;168087.09;;;35.54;30.20
42945;BME280;28584;42.636;23.294;2022-08-19T09:18:14;167960.84;;;35.08;29.84
42945;BME280;28584;42.636;23.294;2022-08-19T09:20:41;167626.94;;;33.85;30.78
42945;BME280;28584;42.636;23.294;2022-08-19T09:23:07;167652.69;;;33.94;31.48
42945;BME280;28584;42.636;23.294;2022-08-19T09:25:33;167717.81;;;34.18;30.56
42945;BME280;28584;42.636;23.294;2022-08-19T09:28:00;167713.75;;;34.17;31.20
42945;BME280;28584;42.636;23.294;2022-08-19T09:30:34;167769.44;;;34.37;30.43
42945;BME280;28584;42.636;23.294;2022-08-19T09:33:00;167907.88;;;34.88;30.57
42945;BME280;28584;42.636;23.294;2022-08-19T09:35:28;168122.41;;;35.67;29.82
42945;BME280;28584;42.636;23.294;2022-08-19T09:37:54;168193.09;;;35.93;29.61
42945;BME280;28584;42.636;23.294;2022-08-19T09:40:20;168281.41;;;36.26;28.36
42945;BME280;28584;42.636;23.294;2022-08-19T09:42:46;167903.81;;;34.87;30.20
42945;BME280;28584;42.636;23.294;2022-08-19T09:45:17;167807.44;;;34.51;29.75
42945;BME280;28584;42.636;23.294;2022-08-19T09:47:43;167751.72;;;34.31;30.86
42945;BME280;28584;42.636;23.294;2022-08-19T09:50:11;167263.38;;;32.50;31.98
42945;BME280;28584;42.636;23.294;2022-08-19T09:52:37;167822.38;;;34.57;30.26
42945;BME280;28584;42.636;23.294;2022-08-19T09:55:08;168093.94;;;35.57;27.88
42945;BME280;28584;42.636;23.294;2022-08-19T09:57:34;168013.78;;;35.27;28.45
42945;BME280;28584;42.636;23.294;2022-08-19T09:59:59;168095.25;;;35.57;27.78
42945;BME280;28584;42.636;23.294;2022-08-19T10:02:25;168352.00;;;36.52;26.54
42945;BME280;28584;42.636;23.294;2022-08-19T10:04:51;168637.41;;;37.57;25.93
42945;BME280;28584;42.636;23.294;2022-08-19T10:07:36;168263.69;;;36.20;27.87
42945;BME280;28584;42.636;23.294;2022-08-19T10:10:04;168060.00;;;35.44;28.52
42945;BME280;28584;42.636;23.294;2022-08-19T10:12:31;167865.75;;;34.73;28.82
42945;BME280;28584;42.636;23.294;2022-08-19T10:14:58;167989.31;;;35.18;27.78
42945;BME280;28584;42.636;23.294;2022-08-19T10:17:23;167730.03;;;34.23;28.56
42945;BME280;28584;42.636;23.294;2022-08-19T10:19:50;167743.59;;;34.28;28.48
42945;BME280;28584;42.636;23.294;2022-08-19T10:22:17;167655.41;;;33.95;29.54
42945;BME280;28584;42.636;23.294;2022-08-19T10:24:43;168005.63;;;35.24;27.59
42945;BME280;28584;42.636;23.294;2022-08-19T10:27:09;168008.31;;;35.25;27.86
42945;BME280;28584;42.636;23.294;2022-08-19T10:29:35;167411.19;;;33.05;30.19
42945;BME280;28584;42.636;23.294;2022-08-19T10:32:03;167806.06;;;34.51;28.42
42945;BME280;28584;42.636;23.294;2022-08-19T10:34:31;168114.25;;;35.64;27.08
42945;BME280;28584;42.636;23.294;2022-08-19T10:36:57;168176.78;;;35.87;26.11
42945;BME280;28584;42.636;23.294;2022-08-19T10:39:23;168269.13;;;36.22;26.27
42945;BME280;28584;42.636;23.294;2022-08-19T10:41:48;168160.47;;;35.81;26.26
42945;BME280;28584;42.636;23.294;2022-08-19T10:44:14;168201.25;;;35.96;26.05
42945;BME280;28584;42.636;23.294;2022-08-19T10:46:42;168009.72;;;35.26;26.74
42945;BME280;28584;42.636;23.294;2022-08-19T10:49:10;167948.63;;;35.03;26.63
42945;BME280;28584;42.636;23.294;2022-08-19T10:51:38;167971.69;;;35.12;26.55
42945;BME280;28584;42.636;23.294;2022-08-19T10:54:22;168098.00;;;35.58;25.69
42945;BME280;28584;42.636;23.294;2022-08-19T10:56:48;168316.69;;;36.39;25.68
42945;BME280;28584;42.636;23.294;2022-08-19T10:59:21;168508.28;;;37.10;24.49
42945;BME280;28584;42.636;23.294;2022-08-19T11:01:47;168660.56;;;37.66;24.65
42945;BME280;28584;42.636;23.294;2022-08-19T11:04:14;168728.56;;;37.91;24.06
42945;BME280;28584;42.636;23.294;2022-08-19T11:06:43;168410.50;;;36.74;25.37
42945;BME280;28584;42.636;23.294;2022-08-19T11:09:10;167985.25;;;35.17;27.18
42945;BME280;28584;42.636;23.294;2022-08-19T11:11:37;167685.28;;;34.06;28.85
42945;BME280;28584;42.636;23.294;2022-08-19T11:14:14;167650.00;;;33.93;28.91
42945;BME280;28584;42.636;23.294;2022-08-19T11:16:41;167725.97;;;34.21;28.84
42945;BME280;28584;42.636;23.294;2022-08-19T11:19:09;167728.66;;;34.22;28.43
42945;BME280;28584;42.636;23.294;2022-08-19T11:21:38;167783.00;;;34.42;28.19
42945;BME280;28584;42.636;23.294;2022-08-19T11:24:08;167785.69;;;34.43;27.87
42945;BME280;28584;42.636;23.294;2022-08-19T11:26:35;167787.06;;;34.44;29.18
42945;BME280;28584;42.636;23.294;2022-08-19T11:29:01;167749.03;;;34.30;28.83
42945;BME280;28584;42.636;23.294;2022-08-19T11:31:29;167622.81;;;33.83;29.42
42945;BME280;28584;42.636;23.294;2022-08-19T11:34:00;167251.16;;;32.46;30.81
42945;BME280;28584;42.636;23.294;2022-08-19T11:36:27;167239.00;;;32.41;30.96
42945;BME280;28584;42.636;23.294;2022-08-19T11:38:53;167240.34;;;32.42;31.22
42945;BME280;28584;42.636;23.294;2022-08-19T11:41:20;167337.97;;;32.78;30.65
42945;BME280;28584;42.636;23.294;2022-08-19T11:43:48;167134.59;;;32.03;32.06
42945;BME280;28584;42.636;23.294;2022-08-19T11:46:15;167226.81;;;32.37;31.49
42945;BME280;28584;42.636;23.294;2022-08-19T11:48:41;167196.94;;;32.26;31.78
42945;BME280;28584;42.636;23.294;2022-08-19T11:51:10;167202.34;;;32.28;31.71
42945;BME280;28584;42.636;23.294;2022-08-19T11:53:37;167152.19;;;32.09;31.90
42945;BME280;28584;42.636;23.294;2022-08-19T11:56:04;167119.69;;;31.97;32.90
42945;BME280;28584;42.636;23.294;2022-08-19T11:58:31;167140.03;;;32.05;32.12
42945;BME280;28584;42.636;23.294;2022-08-19T12:00:56;167186.06;;;32.22;32.26
42945;BME280;28584;42.636;23.294;2022-08-19T12:03:22;167221.38;;;32.35;32.69
42945;BME280;28584;42.636;23.294;2022-08-19T12:05:48;167169.84;;;32.16;31.89
42945;BME280;28584;42.636;23.294;2022-08-19T12:08:14;167173.91;;;32.17;31.71
42945;BME280;28584;42.636;23.294;2022-08-19T12:10:40;167055.97;;;31.74;31.80
42945;BME280;28584;42.636;23.294;2022-08-19T12:13:08;167141.34;;;32.05;32.23
42945;BME280;28584;42.636;23.294;2022-08-19T12:15:38;167160.31;;;32.12;31.92
42945;BME280;28584;42.636;23.294;2022-08-19T12:18:07;167150.88;;;32.09;32.29
42945;BME280;28584;42.636;23.294;2022-08-19T12:20:37;167159.00;;;32.12;32.79
42945;BME280;28584;42.636;23.294;2022-08-19T12:23:04;167198.25;;;32.26;33.07
42945;BME280;28584;42.636;23.294;2022-08-19T12:25:30;167256.63;;;32.48;32.69
42945;BME280;28584;42.636;23.294;2022-08-19T12:27:57;167291.88;;;32.61;32.53
42945;BME280;28584;42.636;23.294;2022-08-19T12:30:22;167264.75;;;32.51;32.08
42945;BME280;28584;42.636;23.294;2022-08-19T12:32:48;167214.59;;;32.32;31.85
42945;BME280;28584;42.636;23.294;2022-08-19T12:35:13;167195.56;;;32.25;31.67
42945;BME280;28584;42.636;23.294;2022-08-19T12:37:39;167184.75;;;32.21;31.37
42945;BME280;28584;42.636;23.294;2022-08-19T12:40:10;167186.06;;;32.22;31.63
42945;BME280;28584;42.636;23.294;2022-08-19T12:42:37;167230.88;;;32.38;32.69
42945;BME280;28584;42.636;23.294;2022-08-19T12:45:06;167240.34;;;32.42;31.27